Preview of NWS' New Version of Forecast
This preview is not operational and should not be used for support decisions.

Terminal Aerodrome Forecast (TAF)

Issued by National Weather Service (NWS)

                            
000
FTUS42 KCAE 171722
TAFOGB
TAF
KOGB 171722Z 1718/1818 23012KT P6SM VCSH SCT050 BKN250
     FM180000 19006KT P6SM BKN070
     FM180400 21003KT P6SM BKN250=